Time;durP1;ratioP1;P1;durP2;ratioP2;P2;SDS_P1;SDS_P2;PMS_P1;PMS_P2;Temp;Humidity;BMP_temperature;BMP_pressure;BME280_temperature;BME280_humidity;BME280_pressure;Samples;Min_cycle;Max_cycle;Signal;HPM_P1;HPM_P2
2022/07/15 00:00:20;;;;;;;20.10;11.97;;;;;;;;;;7730364;23;20047;-58
2022/07/15 00:03:36;;;;;;;18.67;12.00;;;;;;;;;;7727646;23;20023;-57
2022/07/15 00:06:37;;;;;;;13.60;11.27;;;;;;;;;;7729984;23;20407;-55
2022/07/15 00:13:00;;;;;;;18.48;13.30;;;;;;;;;;7727455;23;20087;-57
2022/07/15 00:16:01;;;;;;;17.80;13.27;;;;;;;;;;7727426;23;20391;-56
2022/07/15 00:19:02;;;;;;;14.23;11.77;;;;;;;;;;7730154;23;20099;-49
2022/07/15 00:22:02;;;;;;;14.30;11.00;;;;;;;;;;7729343;23;20024;-50
2022/07/15 00:25:03;;;;;;;14.37;10.87;;;;;;;;;;7727922;23;20027;-56
2022/07/15 00:28:06;;;;;;;13.23;11.30;;;;;;;;;;7727844;23;20016;-58
2022/07/15 00:31:07;;;;;;;13.25;11.10;;;;;;;;;;7728506;23;20016;-58
2022/07/15 00:34:07;;;;;;;15.07;11.07;;;;;;;;;;7727432;23;20016;-57
2022/07/15 00:37:09;;;;;;;14.70;10.57;;;;;;;;;;7728241;23;20020;-57
2022/07/15 00:40:09;;;;;;;16.88;11.93;;;;;;;;;;7728450;23;20031;-57
2022/07/15 00:43:10;;;;;;;14.13;11.37;;;;;;;;;;7726737;23;20440;-56
2022/07/15 00:46:15;;;;;;;13.57;10.47;;;;;;;;;;7731074;23;20511;-58
2022/07/15 00:49:16;;;;;;;15.35;10.70;;;;;;;;;;7730534;23;20431;-54
2022/07/15 00:52:19;;;;;;;13.37;11.00;;;;;;;;;;7730577;23;20022;-57
2022/07/15 00:55:20;;;;;;;16.45;12.00;;;;;;;;;;7732358;23;20040;-57
2022/07/15 00:58:23;;;;;;;;;;;;;;;;;;7732546;23;20019;-54
2022/07/15 01:01:24;;;;;;;16.67;12.18;;;;;;;;;;7730005;23;20556;-58
2022/07/15 01:04:27;;;;;;;18.13;13.57;;;;;;;;;;7729174;23;20023;-57
2022/07/15 01:07:28;;;;;;;17.58;13.55;;;;;;;;;;7732162;23;20016;-58
2022/07/15 01:10:28;;;;;;;16.70;12.70;;;;;;;;;;7731878;23;20026;-58
2022/07/15 01:13:29;;;;;;;19.20;13.17;;;;;;;;;;7726968;23;20054;-56
2022/07/15 01:16:30;;;;;;;16.30;12.53;;;;;;;;;;7730727;23;20510;-57
2022/07/15 01:19:31;;;;;;;18.30;13.30;;;;;;;;;;7731694;23;20513;-57
2022/07/15 01:22:31;;;;;;;14.77;11.50;;;;;;;;;;7730113;23;20030;-53
2022/07/15 01:25:32;;;;;;;16.73;11.53;;;;;;;;;;7732186;23;20073;-55
2022/07/15 01:28:33;;;;;;;16.05;11.93;;;;;;;;;;7732086;23;20026;-57
2022/07/15 01:31:34;;;;;;;14.43;11.37;;;;;;;;;;7731030;23;20347;-58
2022/07/15 01:34:34;;;;;;;12.83;10.53;;;;;;;;;;7729243;23;20016;-54
2022/07/15 01:37:35;;;;;;;14.67;11.40;;;;;;;;;;7731873;23;20020;-56
2022/07/15 01:40:36;;;;;;;18.07;12.00;;;;;;;;;;7732166;23;20026;-55
2022/07/15 01:43:36;;;;;;;16.53;12.53;;;;;;;;;;7729515;23;20020;-57
2022/07/15 01:46:37;;;;;;;18.13;12.30;;;;;;;;;;7732460;23;20026;-57
2022/07/15 01:49:38;;;;;;;19.13;13.03;;;;;;;;;;7734000;23;20031;-52
2022/07/15 01:52:39;;;;;;;21.03;14.73;;;;;;;;;;7746644;23;20035;-57
2022/07/15 01:55:39;;;;;;;22.00;14.77;;;;;;;;;;7736535;23;20051;-56
2022/07/15 01:58:41;;;;;;;22.47;15.80;;;;;;;;;;7732503;23;20089;-57
2022/07/15 02:01:43;;;;;;;22.45;16.15;;;;;;;;;;7729499;23;20028;-56
2022/07/15 02:04:44;;;;;;;21.02;16.45;;;;;;;;;;7728150;23;20050;-50
2022/07/15 02:07:44;;;;;;;24.67;17.27;;;;;;;;;;7731520;23;20016;-49
2022/07/15 02:10:46;;;;;;;22.43;17.47;;;;;;;;;;7731356;23;20128;-58
2022/07/15 02:13:47;;;;;;;;;;;;;;;;;;7703518;23;20107;-56
2022/07/15 02:16:47;;;;;;;26.15;19.40;;;;;;;;;;7730892;23;19915;-56
2022/07/15 02:19:48;;;;;;;27.73;19.17;;;;;;;;;;7741810;23;20022;-54
2022/07/15 02:22:49;;;;;;;27.77;19.00;;;;;;;;;;7727686;23;20105;-54
2022/07/15 02:25:49;;;;;;;27.97;18.53;;;;;;;;;;7731960;23;20387;-53
2022/07/15 02:28:50;;;;;;;27.08;19.02;;;;;;;;;;7730556;23;20017;-55
2022/07/15 02:31:51;;;;;;;30.00;19.23;;;;;;;;;;7732051;23;20603;-55
2022/07/15 02:34:51;;;;;;;28.53;19.77;;;;;;;;;;7730240;23;20020;-52
2022/07/15 02:37:52;;;;;;;28.38;19.70;;;;;;;;;;7731434;23;20023;-49
2022/07/15 02:40:53;;;;;;;29.27;20.30;;;;;;;;;;7731185;23;20460;-56
2022/07/15 02:43:55;;;;;;;25.80;19.73;;;;;;;;;;7731087;23;20020;-54
2022/07/15 02:46:56;;;;;;;30.35;20.38;;;;;;;;;;7732126;23;20829;-56
2022/07/15 02:49:56;;;;;;;29.33;19.63;;;;;;;;;;7729421;23;20107;-54
2022/07/15 02:52:57;;;;;;;30.13;19.73;;;;;;;;;;7729391;23;20018;-55
2022/07/15 02:55:58;;;;;;;26.93;19.73;;;;;;;;;;7730775;23;20026;-56
2022/07/15 02:58:59;;;;;;;29.65;20.02;;;;;;;;;;7729268;23;20107;-58
2022/07/15 03:01:59;;;;;;;25.93;19.13;;;;;;;;;;7728466;23;20427;-56
2022/07/15 03:05:00;;;;;;;27.67;19.02;;;;;;;;;;7728117;23;20118;-55
2022/07/15 03:08:01;;;;;;;28.90;19.67;;;;;;;;;;7729348;23;20016;-55
2022/07/15 03:11:01;;;;;;;26.43;18.37;;;;;;;;;;7728787;23;20024;-58
2022/07/15 03:14:02;;;;;;;27.80;18.40;;;;;;;;;;7729491;23;20109;-56
2022/07/15 03:17:03;;;;;;;25.50;17.77;;;;;;;;;;7731586;23;20476;-53
2022/07/15 03:20:04;;;;;;;29.63;18.67;;;;;;;;;;7729662;23;20023;-52
2022/07/15 03:23:05;;;;;;;27.80;18.03;;;;;;;;;;7728230;23;20020;-56
2022/07/15 03:26:05;;;;;;;28.37;18.87;;;;;;;;;;7729749;23;20360;-58
2022/07/15 03:29:06;;;;;;;26.25;18.27;;;;;;;;;;7732591;23;20027;-53
2022/07/15 03:32:06;;;;;;;26.00;18.48;;;;;;;;;;7733383;23;20730;-55
2022/07/15 03:35:08;;;;;;;28.77;19.27;;;;;;;;;;7732420;23;20028;-55
2022/07/15 03:38:09;;;;;;;26.90;18.07;;;;;;;;;;7735914;23;20150;-57
2022/07/15 03:41:10;;;;;;;27.97;18.90;;;;;;;;;;7734034;23;20269;-56
2022/07/15 03:44:10;;;;;;;25.13;18.00;;;;;;;;;;7729413;23;20104;-55
2022/07/15 03:47:11;;;;;;;28.23;18.80;;;;;;;;;;7734037;23;20777;-52
2022/07/15 03:50:12;;;;;;;22.97;16.20;;;;;;;;;;7732750;23;20028;-51
2022/07/15 03:53:13;;;;;;;24.15;15.52;;;;;;;;;;7732750;23;20024;-54
2022/07/15 03:56:14;;;;;;;21.97;16.17;;;;;;;;;;7731728;23;20103;-53
2022/07/15 03:59:15;;;;;;;22.10;16.63;;;;;;;;;;7743660;23;20978;-56
2022/07/15 04:02:16;;;;;;;31.27;19.40;;;;;;;;;;7729833;23;20107;-57
2022/07/15 04:05:17;;;;;;;28.58;17.90;;;;;;;;;;7728289;23;20350;-54
2022/07/15 04:08:17;;;;;;;29.35;15.80;;;;;;;;;;7726112;23;20630;-53
2022/07/15 04:11:18;;;;;;;21.00;10.98;;;;;;;;;;7728446;23;20024;-56
2022/07/15 04:14:22;;;;;;;16.60;9.60;;;;;;;;;;7727388;23;20105;-50
2022/07/15 04:17:22;;;;;;;16.80;8.85;;;;;;;;;;7728073;23;20027;-56
2022/07/15 04:20:23;;;;;;;13.95;9.10;;;;;;;;;;7728892;23;20020;-57
2022/07/15 04:23:25;;;;;;;14.98;8.32;;;;;;;;;;7729119;23;20193;-56
2022/07/15 04:26:25;;;;;;;11.85;7.80;;;;;;;;;;7729030;23;20513;-54
2022/07/15 04:29:26;;;;;;;13.70;8.02;;;;;;;;;;7730282;23;20019;-55
2022/07/15 04:32:26;;;;;;;13.85;7.40;;;;;;;;;;7728247;23;20040;-56
2022/07/15 04:35:27;;;;;;;12.27;7.40;;;;;;;;;;7728548;23;20821;-57
2022/07/15 04:38:28;;;;;;;12.07;7.68;;;;;;;;;;7732129;23;20115;-57
2022/07/15 04:41:28;;;;;;;17.23;8.13;;;;;;;;;;7731698;23;20039;-57
2022/07/15 04:44:29;;;;;;;16.52;8.95;;;;;;;;;;7742307;23;20038;-56
2022/07/15 04:47:30;;;;;;;12.80;7.47;;;;;;;;;;7733472;23;20024;-55
2022/07/15 04:50:52;;;;;;;14.30;8.85;;;;;;;;;;7732241;23;20102;-57
2022/07/15 04:53:51;;;;;;;14.48;8.35;;;;;;;;;;7731115;23;20016;-50
2022/07/15 04:56:53;;;;;;;17.13;8.60;;;;;;;;;;7736422;23;20024;-56
2022/07/15 04:59:54;;;;;;;14.97;7.57;;;;;;;;;;7737737;23;20372;-56
2022/07/15 05:02:57;;;;;;;13.32;7.82;;;;;;;;;;7735287;23;20030;-56
2022/07/15 05:05:57;;;;;;;12.25;6.75;;;;;;;;;;7744622;23;20027;-57
2022/07/15 05:08:58;;;;;;;14.55;7.55;;;;;;;;;;7737811;23;20024;-53
2022/07/15 05:11:59;;;;;;;14.57;7.33;;;;;;;;;;7737163;23;20074;-58
2022/07/15 05:14:59;;;;;;;13.30;7.70;;;;;;;;;;7735576;23;20803;-56
2022/07/15 05:18:00;;;;;;;17.40;7.95;;;;;;;;;;7734161;23;20024;-55
2022/07/15 05:21:00;;;;;;;14.82;7.80;;;;;;;;;;7736723;23;20035;-54
2022/07/15 05:24:01;;;;;;;17.38;8.20;;;;;;;;;;7736081;23;20016;-53
2022/07/15 05:27:02;;;;;;;14.07;7.15;;;;;;;;;;7738554;23;20020;-57
2022/07/15 05:30:03;;;;;;;12.77;7.50;;;;;;;;;;7737650;23;20138;-53
2022/07/15 05:33:04;;;;;;;12.50;7.13;;;;;;;;;;7734588;23;20477;-54
2022/07/15 05:36:04;;;;;;;15.88;8.68;;;;;;;;;;7710051;23;20103;-49
2022/07/15 05:39:05;;;;;;;15.10;9.03;;;;;;;;;;7734018;23;20431;-48
2022/07/15 05:42:06;;;;;;;16.98;8.57;;;;;;;;;;7733260;23;20896;-50
2022/07/15 05:45:08;;;;;;;15.73;8.57;;;;;;;;;;7734779;23;20107;-55
2022/07/15 05:48:08;;;;;;;13.90;8.37;;;;;;;;;;7736782;23;20032;-52
2022/07/15 05:51:10;;;;;;;15.48;7.82;;;;;;;;;;7735831;23;20491;-54
2022/07/15 05:54:13;;;;;;;15.50;7.25;;;;;;;;;;7732799;23;20027;-50
2022/07/15 05:57:13;;;;;;;9.38;6.05;;;;;;;;;;7731365;23;20091;-55
2022/07/15 06:00:14;;;;;;;8.70;4.80;;;;;;;;;;7741674;23;20085;-52
2022/07/15 06:03:15;;;;;;;9.97;4.87;;;;;;;;;;7729600;23;20107;-53
2022/07/15 06:06:16;;;;;;;7.60;4.30;;;;;;;;;;7704476;23;20016;-50
2022/07/15 06:09:17;;;;;;;10.32;4.47;;;;;;;;;;7733919;23;20040;-51
2022/07/15 06:12:17;;;;;;;11.05;4.15;;;;;;;;;;7732335;23;20019;-52
2022/07/15 06:15:19;;;;;;;9.27;4.25;;;;;;;;;;7733968;23;20035;-52
2022/07/15 06:18:21;;;;;;;8.93;3.90;;;;;;;;;;7734442;23;20062;-55
2022/07/15 06:21:21;;;;;;;9.27;3.90;;;;;;;;;;7731814;23;20020;-51
2022/07/15 06:24:22;;;;;;;7.67;3.77;;;;;;;;;;7727938;23;20023;-54
2022/07/15 06:27:23;;;;;;;9.95;4.00;;;;;;;;;;7730305;23;20694;-54
2022/07/15 06:30:24;;;;;;;7.45;3.65;;;;;;;;;;7730711;23;20016;-48
2022/07/15 06:33:25;;;;;;;7.53;3.58;;;;;;;;;;7731534;23;20020;-54
2022/07/15 06:36:26;;;;;;;8.95;4.10;;;;;;;;;;7734911;23;20435;-57
2022/07/15 06:39:27;;;;;;;7.13;3.28;;;;;;;;;;7736611;23;20612;-52
2022/07/15 06:42:27;;;;;;;10.15;3.92;;;;;;;;;;7735986;23;20024;-55
2022/07/15 06:45:28;;;;;;;10.93;3.90;;;;;;;;;;7735436;23;20383;-58
2022/07/15 06:48:28;;;;;;;7.32;3.53;;;;;;;;;;7737069;23;20364;-57
2022/07/15 06:51:29;;;;;;;11.43;3.80;;;;;;;;;;7736181;23;20078;-57
2022/07/15 06:54:30;;;;;;;8.80;4.20;;;;;;;;;;7734395;23;20034;-57
2022/07/15 06:57:31;;;;;;;11.50;4.45;;;;;;;;;;7736724;23;20078;-57
2022/07/15 07:00:31;;;;;;;9.82;4.50;;;;;;;;;;7735731;23;20024;-54
2022/07/15 07:03:32;;;;;;;13.27;4.83;;;;;;;;;;7733910;23;20729;-51
2022/07/15 07:06:33;;;;;;;10.53;4.90;;;;;;;;;;7736190;23;20028;-50
2022/07/15 07:09:34;;;;;;;10.57;5.10;;;;;;;;;;7748184;23;20119;-57
2022/07/15 07:12:35;;;;;;;8.23;4.97;;;;;;;;;;7731479;23;20043;-49
2022/07/15 07:15:36;;;;;;;9.38;4.50;;;;;;;;;;7731557;23;20048;-57
2022/07/15 07:18:36;;;;;;;9.03;4.13;;;;;;;;;;7744331;23;20030;-51
2022/07/15 07:21:39;;;;;;;10.27;4.40;;;;;;;;;;7729063;23;20483;-54
2022/07/15 07:24:40;;;;;;;11.73;4.38;;;;;;;;;;7728271;23;20050;-55
2022/07/15 07:27:41;;;;;;;9.70;3.93;;;;;;;;;;7729673;23;20024;-57
2022/07/15 07:30:42;;;;;;;9.70;4.00;;;;;;;;;;7700928;23;20027;-49
2022/07/15 07:33:43;;;;;;;7.97;3.72;;;;;;;;;;7730379;23;20317;-55
2022/07/15 07:36:46;;;;;;;6.68;3.63;;;;;;;;;;7731127;23;20520;-50
2022/07/15 07:39:47;;;;;;;7.85;3.88;;;;;;;;;;7729240;23;20100;-54
2022/07/15 07:42:48;;;;;;;9.52;3.70;;;;;;;;;;7727876;23;20020;-56
2022/07/15 07:45:49;;;;;;;12.50;3.93;;;;;;;;;;7728672;23;20020;-53
2022/07/15 07:48:49;;;;;;;9.10;3.57;;;;;;;;;;7730925;23;20038;-54
2022/07/15 07:51:52;;;;;;;6.63;2.77;;;;;;;;;;7727537;23;20539;-57
2022/07/15 07:54:52;;;;;;;12.43;3.40;;;;;;;;;;7730987;23;20019;-47
2022/07/15 07:57:56;;;;;;;8.75;2.88;;;;;;;;;;7730013;23;20024;-54
2022/07/15 08:00:56;;;;;;;8.27;2.60;;;;;;;;;;7730582;23;20027;-49
2022/07/15 08:03:57;;;;;;;6.80;2.57;;;;;;;;;;7728467;23;20020;-53
2022/07/15 08:06:57;;;;;;;6.57;2.20;;;;;;;;;;7728275;23;20451;-53
2022/07/15 08:09:58;;;;;;;8.10;2.87;;;;;;;;;;7730219;23;20467;-56
2022/07/15 08:13:00;;;;;;;4.78;2.10;;;;;;;;;;7730290;23;20401;-57
2022/07/15 08:16:01;;;;;;;5.45;2.20;;;;;;;;;;7731367;23;20103;-55
2022/07/15 08:19:02;;;;;;;5.20;2.00;;;;;;;;;;7728310;23;20023;-58
2022/07/15 08:22:03;;;;;;;3.55;1.70;;;;;;;;;;7729509;23;20028;-49
2022/07/15 08:25:04;;;;;;;3.67;1.90;;;;;;;;;;7728620;23;20095;-47
2022/07/15 08:28:06;;;;;;;4.40;2.10;;;;;;;;;;7728737;23;20030;-53
2022/07/15 08:31:06;;;;;;;;;;;;;;;;;;7729076;23;20020;-55
2022/07/15 08:34:08;;;;;;;6.15;2.10;;;;;;;;;;7727096;23;19974;-53
2022/07/15 08:37:09;;;;;;;5.60;2.15;;;;;;;;;;7729402;23;20059;-50
2022/07/15 08:40:10;;;;;;;6.00;2.13;;;;;;;;;;7729189;23;20099;-53
2022/07/15 08:43:11;;;;;;;4.47;1.93;;;;;;;;;;7726893;23;20055;-52
2022/07/15 08:46:14;;;;;;;5.30;2.10;;;;;;;;;;7728504;23;20020;-54
2022/07/15 08:49:16;;;;;;;5.13;1.90;;;;;;;;;;7731657;23;20518;-48
2022/07/15 08:52:17;;;;;;;4.75;2.13;;;;;;;;;;7731116;23;20043;-49
2022/07/15 08:55:18;;;;;;;4.60;2.20;;;;;;;;;;7730260;23;20016;-53
2022/07/15 08:58:19;;;;;;;4.03;2.10;;;;;;;;;;7730245;23;20364;-57
2022/07/15 09:01:20;;;;;;;6.10;2.50;;;;;;;;;;7729297;23;20525;-53
2022/07/15 09:04:21;;;;;;;5.33;2.50;;;;;;;;;;7727276;23;20089;-52
2022/07/15 09:07:21;;;;;;;5.20;2.50;;;;;;;;;;7730236;23;20612;-50
2022/07/15 09:10:24;;;;;;;7.00;2.50;;;;;;;;;;7731890;23;20023;-55
2022/07/15 09:13:32;;;;;;;7.30;2.72;;;;;;;;;;7728672;23;20876;-53
2022/07/15 09:16:33;;;;;;;6.88;2.50;;;;;;;;;;7733015;23;20044;-52
2022/07/15 09:19:55;;;;;;;4.63;2.60;;;;;;;;;;7731669;23;20062;-48
2022/07/15 09:22:56;;;;;;;5.72;3.00;;;;;;;;;;7731330;23;20131;-52
2022/07/15 09:26:22;;;;;;;4.67;2.00;;;;;;;;;;7732423;23;20317;-51
2022/07/15 09:36:26;;;;;;;4.97;1.90;;;;;;;;;;7737219;23;20099;-49
2022/07/15 09:39:26;;;;;;;4.38;1.90;;;;;;;;;;7737552;23;20054;-48
2022/07/15 09:42:27;;;;;;;7.03;2.07;;;;;;;;;;7737353;23;20020;-48
2022/07/15 09:45:28;;;;;;;6.53;2.00;;;;;;;;;;7735192;23;20361;-53
2022/07/15 09:48:28;;;;;;;4.33;1.80;;;;;;;;;;7731508;23;20684;-49
2022/07/15 09:51:29;;;;;;;6.20;1.70;;;;;;;;;;7737303;23;20459;-50
2022/07/15 09:54:33;;;;;;;6.53;1.63;;;;;;;;;;7736234;23;20103;-48
2022/07/15 09:57:33;;;;;;;4.32;1.58;;;;;;;;;;7737266;23;20792;-48
2022/07/15 10:00:37;;;;;;;4.10;1.50;;;;;;;;;;7737624;23;20031;-49
2022/07/15 10:03:39;;;;;;;4.43;1.58;;;;;;;;;;7736140;23;20757;-55
2022/07/15 10:06:42;;;;;;;5.75;1.65;;;;;;;;;;7736964;23;20028;-55
2022/07/15 10:09:44;;;;;;;4.35;1.52;;;;;;;;;;7747974;23;20024;-47
2022/07/15 10:13:26;;;;;;;5.82;1.70;;;;;;;;;;7747835;23;20103;-54
2022/07/15 10:16:27;;;;;;;5.20;1.90;;;;;;;;;;7694802;23;20396;-53
2022/07/15 10:19:53;;;;;;;3.63;1.63;;;;;;;;;;7736891;23;20047;-54
2022/07/15 10:23:01;;;;;;;2.97;1.33;;;;;;;;;;7735348;23;20055;-53
2022/07/15 10:26:27;;;;;;;6.70;1.60;;;;;;;;;;7736971;23;20103;-55
2022/07/15 10:29:31;;;;;;;3.85;1.60;;;;;;;;;;7748751;23;20031;-48
2022/07/15 10:33:19;;;;;;;4.13;1.35;;;;;;;;;;7736622;23;20131;-49
2022/07/15 10:36:20;;;;;;;5.50;1.50;;;;;;;;;;7711179;23;20463;-50
2022/07/15 10:39:24;;;;;;;5.20;1.87;;;;;;;;;;7736638;23;20016;-50
2022/07/15 10:42:25;;;;;;;6.50;1.70;;;;;;;;;;7736269;23;20027;-48
2022/07/15 10:45:26;;;;;;;3.92;1.70;;;;;;;;;;7736465;23;20024;-51
2022/07/15 10:48:30;;;;;;;4.03;1.30;;;;;;;;;;7731485;23;20035;-54
2022/07/15 10:51:36;;;;;;;4.47;1.30;;;;;;;;;;7735574;23;20118;-56
2022/07/15 10:54:40;;;;;;;3.80;1.38;;;;;;;;;;7729018;23;20047;-47
2022/07/15 10:57:41;;;;;;;5.38;1.60;;;;;;;;;;7729807;23;20106;-54
2022/07/15 11:00:43;;;;;;;4.30;1.60;;;;;;;;;;7729696;23;20032;-48
2022/07/15 11:04:20;;;;;;;4.53;1.55;;;;;;;;;;7727785;23;20020;-50
2022/07/15 11:07:24;;;;;;;4.75;1.75;;;;;;;;;;7587260;23;20024;-53
2022/07/15 11:10:25;;;;;;;3.53;1.73;;;;;;;;;;7734673;23;20561;-51
2022/07/15 11:13:33;;;;;;;4.37;1.53;;;;;;;;;;7730457;23;20016;-49
2022/07/15 11:16:35;;;;;;;2.72;1.40;;;;;;;;;;7733760;23;20054;-52
2022/07/15 11:19:36;;;;;;;4.07;1.50;;;;;;;;;;7730445;23;20047;-51
2022/07/15 11:22:42;;;;;;;5.13;1.77;;;;;;;;;;7730030;23;20066;-52
2022/07/15 11:25:43;;;;;;;4.93;1.60;;;;;;;;;;7730643;23;20028;-48
2022/07/15 11:28:55;;;;;;;3.40;1.70;;;;;;;;;;7729774;23;20016;-50
2022/07/15 11:31:56;;;;;;;;;;;;;;;;;;7729241;23;20016;-54
2022/07/15 11:34:59;;;;;;;4.18;1.65;;;;;;;;;;7728187;23;19915;-52
2022/07/15 11:38:02;;;;;;;3.17;1.50;;;;;;;;;;7730154;23;20028;-49
2022/07/15 11:44:29;;;;;;;4.03;2.10;;;;;;;;;;7728671;23;20016;-50
2022/07/15 11:47:29;;;;;;;3.58;1.75;;;;;;;;;;7732812;23;20118;-52
2022/07/15 11:50:30;;;;;;;5.97;1.70;;;;;;;;;;7736438;23;20340;-47
2022/07/15 11:53:37;;;;;;;4.60;1.50;;;;;;;;;;7734545;23;20466;-49
2022/07/15 11:56:37;;;;;;;3.97;1.50;;;;;;;;;;7733629;23;20020;-56
2022/07/15 11:59:38;;;;;;;6.80;2.00;;;;;;;;;;7729543;23;20035;-56
2022/07/15 12:02:38;;;;;;;6.00;1.80;;;;;;;;;;7727969;23;20030;-50
2022/07/15 12:05:39;;;;;;;3.30;1.53;;;;;;;;;;7730132;23;20170;-55
2022/07/15 12:08:43;;;;;;;4.93;1.80;;;;;;;;;;7729921;23;20895;-54
2022/07/15 12:11:44;;;;;;;3.33;1.50;;;;;;;;;;7726613;23;20107;-56
2022/07/15 12:14:47;;;;;;;3.50;1.80;;;;;;;;;;7727524;23;20020;-57
2022/07/15 12:17:48;;;;;;;4.55;1.70;;;;;;;;;;7729609;23;20066;-54
2022/07/15 12:20:49;;;;;;;4.15;1.58;;;;;;;;;;7729072;23;20094;-52
2022/07/15 12:24:01;;;;;;;3.60;1.53;;;;;;;;;;7726418;23;20032;-51
2022/07/15 12:27:02;;;;;;;5.00;1.90;;;;;;;;;;7728812;23;20023;-57
2022/07/15 12:30:06;;;;;;;5.10;1.83;;;;;;;;;;7731550;23;20770;-56
2022/07/15 12:33:33;;;;;;;3.97;1.73;;;;;;;;;;7727472;23;20108;-56
2022/07/15 12:36:37;;;;;;;4.65;1.60;;;;;;;;;;7729155;23;20649;-55
2022/07/15 12:39:57;;;;;;;4.45;1.73;;;;;;;;;;7734308;23;20447;-56
2022/07/15 12:42:58;;;;;;;6.15;1.83;;;;;;;;;;7734614;23;20030;-56
2022/07/15 12:46:01;;;;;;;4.05;1.60;;;;;;;;;;7737193;23;20028;-56
2022/07/15 12:49:01;;;;;;;4.60;2.00;;;;;;;;;;7736409;23;20051;-57
2022/07/15 12:52:24;;;;;;;4.60;1.90;;;;;;;;;;7737276;23;20022;-56
2022/07/15 12:55:31;;;;;;;3.50;1.65;;;;;;;;;;7735344;23;20043;-57
2022/07/15 12:58:34;;;;;;;5.68;1.65;;;;;;;;;;7735945;23;20016;-48
2022/07/15 13:01:35;;;;;;;2.72;1.50;;;;;;;;;;7737476;23;20107;-55
2022/07/15 13:04:36;;;;;;;4.00;1.60;;;;;;;;;;7734480;23;20540;-50
2022/07/15 13:07:36;;;;;;;3.83;1.70;;;;;;;;;;7735052;23;20331;-53
2022/07/15 13:10:38;;;;;;;4.53;1.60;;;;;;;;;;7737587;23;20456;-52
2022/07/15 13:13:40;;;;;;;3.63;1.70;;;;;;;;;;7734888;23;20016;-55
2022/07/15 13:16:41;;;;;;;;;;;;;;;;;;7737855;23;20099;-56
2022/07/15 13:19:41;;;;;;;6.47;1.75;;;;;;;;;;7737027;23;19941;-56
2022/07/15 13:22:42;;;;;;;3.83;1.90;;;;;;;;;;7730179;23;20617;-50
2022/07/15 13:25:45;;;;;;;4.78;1.60;;;;;;;;;;7727833;23;20072;-54
2022/07/15 13:28:45;;;;;;;3.33;1.70;;;;;;;;;;7728967;23;20058;-50
2022/07/15 13:34:56;;;;;;;5.45;1.95;;;;;;;;;;7696838;22;20045;-50
2022/07/15 13:37:57;;;;;;;5.00;1.63;;;;;;;;;;7739641;23;20016;-56
2022/07/15 13:40:57;;;;;;;4.30;1.80;;;;;;;;;;7734938;23;20259;-58
2022/07/15 13:43:58;;;;;;;3.63;1.70;;;;;;;;;;7735044;23;20457;-57
2022/07/15 13:46:58;;;;;;;4.73;1.70;;;;;;;;;;7736270;23;20016;-55
2022/07/15 13:53:18;;;;;;;5.05;2.13;;;;;;;;;;7729544;23;20023;-55
2022/07/15 13:56:20;;;;;;;5.50;1.80;;;;;;;;;;7733629;23;20342;-58
2022/07/15 13:59:20;;;;;;;5.68;1.77;;;;;;;;;;7732280;23;20020;-57
2022/07/15 14:02:21;;;;;;;4.87;1.80;;;;;;;;;;7731035;23;20113;-58
2022/07/15 14:05:22;;;;;;;4.90;1.80;;;;;;;;;;7736900;23;20418;-54
2022/07/15 14:08:23;;;;;;;5.18;1.90;;;;;;;;;;7730960;23;20046;-55
2022/07/15 14:11:23;;;;;;;4.93;2.00;;;;;;;;;;7731101;23;20024;-53
2022/07/15 14:14:24;;;;;;;4.63;1.73;;;;;;;;;;7729574;23;20459;-55
2022/07/15 14:17:25;;;;;;;5.70;2.05;;;;;;;;;;7732359;23;20408;-57
2022/07/15 14:20:26;;;;;;;5.60;1.60;;;;;;;;;;7730846;23;20017;-58
2022/07/15 14:23:26;;;;;;;6.03;1.97;;;;;;;;;;7731371;23;20024;-54
2022/07/15 14:26:27;;;;;;;3.43;1.60;;;;;;;;;;7730786;23;20541;-57
2022/07/15 14:29:28;;;;;;;5.13;1.60;;;;;;;;;;7730410;23;20020;-58
2022/07/15 14:32:29;;;;;;;3.47;1.63;;;;;;;;;;7727991;23;20023;-59
2022/07/15 14:35:29;;;;;;;5.57;1.60;;;;;;;;;;7730781;23;20123;-50
2022/07/15 14:38:31;;;;;;;7.20;1.80;;;;;;;;;;7730661;23;20020;-51
2022/07/15 14:41:33;;;;;;;7.88;1.60;;;;;;;;;;7731552;23;20351;-54
2022/07/15 14:44:33;;;;;;;3.83;1.55;;;;;;;;;;7730031;23;20095;-52
2022/07/15 14:47:34;;;;;;;4.53;1.80;;;;;;;;;;7731520;23;20351;-53
2022/07/15 14:50:35;;;;;;;3.80;1.30;;;;;;;;;;7728577;23;20013;-55
2022/07/15 14:53:35;;;;;;;3.37;1.50;;;;;;;;;;7731678;23;20016;-55
2022/07/15 14:56:36;;;;;;;3.77;1.63;;;;;;;;;;7737037;23;20057;-51
2022/07/15 14:59:37;;;;;;;5.27;1.90;;;;;;;;;;7731495;23;20016;-53
2022/07/15 15:02:37;;;;;;;5.47;1.40;;;;;;;;;;7729643;23;20504;-51
2022/07/15 15:05:38;;;;;;;4.67;1.60;;;;;;;;;;7730296;23;20023;-59
2022/07/15 15:08:39;;;;;;;2.80;1.30;;;;;;;;;;7730193;23;20098;-51
2022/07/15 15:11:39;;;;;;;3.83;1.40;;;;;;;;;;7731797;23;20047;-55
2022/07/15 15:14:40;;;;;;;4.83;1.67;;;;;;;;;;7704633;23;20038;-57
2022/07/15 15:17:41;;;;;;;4.57;1.50;;;;;;;;;;7745453;23;20028;-57
2022/07/15 15:20:41;;;;;;;7.57;1.80;;;;;;;;;;7735174;23;20016;-53
2022/07/15 15:23:42;;;;;;;4.07;1.60;;;;;;;;;;7728612;23;20024;-53
2022/07/15 15:26:42;;;;;;;5.03;1.50;;;;;;;;;;7731407;23;20020;-56
2022/07/15 15:29:43;;;;;;;3.87;1.63;;;;;;;;;;7730556;23;20019;-54
2022/07/15 15:32:43;;;;;;;6.93;2.23;;;;;;;;;;7729920;23;20016;-49
2022/07/15 15:35:44;;;;;;;6.33;1.60;;;;;;;;;;7730674;23;20187;-58
2022/07/15 15:38:45;;;;;;;6.83;1.97;;;;;;;;;;7727930;23;20070;-54
2022/07/15 15:41:45;;;;;;;4.13;1.40;;;;;;;;;;7728614;23;20024;-54
2022/07/15 15:44:46;;;;;;;6.70;1.43;;;;;;;;;;7730191;23;20075;-50
2022/07/15 15:47:47;;;;;;;2.73;1.37;;;;;;;;;;7729594;23;20070;-56
2022/07/15 15:50:48;;;;;;;4.60;1.73;;;;;;;;;;7728478;23;20351;-57
2022/07/15 15:53:49;;;;;;;5.78;1.55;;;;;;;;;;7727196;23;20127;-57
2022/07/15 15:56:49;;;;;;;4.80;1.60;;;;;;;;;;7728824;23;20534;-59
2022/07/15 15:59:50;;;;;;;4.47;1.77;;;;;;;;;;7728453;23;20398;-55
2022/07/15 16:02:51;;;;;;;7.20;1.43;;;;;;;;;;7726595;23;20024;-51
2022/07/15 16:05:52;;;;;;;5.90;1.50;;;;;;;;;;7735155;23;20031;-50
2022/07/15 16:08:52;;;;;;;4.03;1.77;;;;;;;;;;7735664;23;20598;-49
2022/07/15 16:11:53;;;;;;;5.07;1.70;;;;;;;;;;7736253;23;20016;-52
2022/07/15 16:14:54;;;;;;;5.40;1.63;;;;;;;;;;7742217;23;20028;-56
2022/07/15 16:17:54;;;;;;;3.83;1.50;;;;;;;;;;7735694;23;20020;-53
2022/07/15 16:20:55;;;;;;;5.87;1.80;;;;;;;;;;7737441;23;20044;-56
2022/07/15 16:23:55;;;;;;;5.27;1.50;;;;;;;;;;7735161;23;20024;-53
2022/07/15 16:26:56;;;;;;;4.10;1.63;;;;;;;;;;7735135;23;20028;-55
2022/07/15 16:29:57;;;;;;;5.07;1.47;;;;;;;;;;7736039;23;20020;-56
2022/07/15 16:32:58;;;;;;;3.93;1.50;;;;;;;;;;7734445;23;20451;-57
2022/07/15 16:35:59;;;;;;;;;;;;;;;;;;7737899;23;20478;-59
2022/07/15 16:39:00;;;;;;;5.93;1.65;;;;;;;;;;7736868;23;19919;-57
2022/07/15 16:42:00;;;;;;;6.40;1.97;;;;;;;;;;7736821;23;20069;-49
2022/07/15 16:45:01;;;;;;;5.97;1.70;;;;;;;;;;7735049;23;20032;-58
2022/07/15 16:48:02;;;;;;;3.53;1.80;;;;;;;;;;7733574;23;20017;-55
2022/07/15 16:51:03;;;;;;;6.10;2.20;;;;;;;;;;7734902;23;20020;-57
2022/07/15 16:54:03;;;;;;;4.63;1.83;;;;;;;;;;7734609;23;20020;-57
2022/07/15 16:57:04;;;;;;;5.70;1.83;;;;;;;;;;7735789;23;20019;-51
2022/07/15 17:00:07;;;;;;;4.63;1.73;;;;;;;;;;7736108;23;20083;-57
2022/07/15 17:03:08;;;;;;;3.83;1.85;;;;;;;;;;7735266;23;20670;-58
2022/07/15 17:06:08;;;;;;;6.33;1.70;;;;;;;;;;7736525;23;20023;-57
2022/07/15 17:09:09;;;;;;;5.17;1.90;;;;;;;;;;7736929;23;20016;-55
2022/07/15 17:12:10;;;;;;;5.43;1.80;;;;;;;;;;7736001;23;20024;-47
2022/07/15 17:15:11;;;;;;;4.88;1.60;;;;;;;;;;7736776;23;20091;-59
2022/07/15 17:18:11;;;;;;;5.37;1.90;;;;;;;;;;7736042;23;20023;-57
2022/07/15 17:21:12;;;;;;;4.83;1.70;;;;;;;;;;7737074;23;20020;-59
2022/07/15 17:24:13;;;;;;;6.63;2.10;;;;;;;;;;7735691;23;20091;-61
2022/07/15 17:27:14;;;;;;;5.13;1.90;;;;;;;;;;7736401;23;20016;-58
2022/07/15 17:30:14;;;;;;;3.73;1.80;;;;;;;;;;7739276;23;20016;-54
2022/07/15 17:33:15;;;;;;;5.20;1.97;;;;;;;;;;7737009;23;20519;-55
2022/07/15 17:36:16;;;;;;;8.80;2.00;;;;;;;;;;7738520;23;20040;-58
2022/07/15 17:39:16;;;;;;;5.97;1.83;;;;;;;;;;7736668;23;20888;-60
2022/07/15 17:42:17;;;;;;;5.00;1.93;;;;;;;;;;7736945;23;20020;-57
2022/07/15 17:45:18;;;;;;;4.33;1.57;;;;;;;;;;7737776;23;20339;-59
2022/07/15 17:48:18;;;;;;;3.03;1.40;;;;;;;;;;7736981;23;20346;-54
2022/07/15 17:51:19;;;;;;;4.20;1.70;;;;;;;;;;7737883;23;20447;-47
2022/07/15 17:54:20;;;;;;;5.32;1.85;;;;;;;;;;7736201;23;20020;-58
2022/07/15 17:57:21;;;;;;;6.07;1.90;;;;;;;;;;7737178;23;20035;-60
2022/07/15 18:00:22;;;;;;;3.83;1.60;;;;;;;;;;7736364;23;20552;-52
2022/07/15 18:03:23;;;;;;;3.97;1.57;;;;;;;;;;7734499;23;20024;-51
2022/07/15 18:06:24;;;;;;;4.28;1.58;;;;;;;;;;7737607;23;20026;-54
2022/07/15 18:09:24;;;;;;;3.43;1.67;;;;;;;;;;7737232;23;20440;-57
2022/07/15 18:12:25;;;;;;;4.77;1.60;;;;;;;;;;7734206;23;20496;-52
2022/07/15 18:15:26;;;;;;;4.60;1.70;;;;;;;;;;7737493;23;20099;-51
2022/07/15 18:18:27;;;;;;;4.40;1.63;;;;;;;;;;7737376;23;20030;-59
2022/07/15 18:21:27;;;;;;;4.07;1.47;;;;;;;;;;7736769;23;20016;-54
2022/07/15 18:24:28;;;;;;;3.27;1.70;;;;;;;;;;7736537;23;20024;-50